sensor_id;sensor_type;location;lat;lon;timestamp;pressure;altitude;pressure_sealevel;temperature;humidity
77737;BME280;66903;59.926;30.404;2024-03-02T00:01:34;102592.09;;;6.92;59.37
77737;BME280;66903;59.926;30.404;2024-03-02T00:06:45;102580.38;;;6.88;59.14
77737;BME280;66903;59.926;30.404;2024-03-02T00:11:56;102566.38;;;6.80;59.33
77737;BME280;66903;59.926;30.404;2024-03-02T00:17:19;102574.56;;;6.91;59.20
77737;BME280;66903;59.926;30.404;2024-03-02T00:22:35;102574.28;;;6.85;59.21
77737;BME280;66903;59.926;30.404;2024-03-02T00:27:47;102535.56;;;6.54;59.56
77737;BME280;66903;59.926;30.404;2024-03-02T00:32:59;102565.38;;;6.81;59.61
77737;BME280;66903;59.926;30.404;2024-03-02T00:38:10;102566.97;;;6.84;59.27
77737;BME280;66903;59.926;30.404;2024-03-02T00:43:38;102559.94;;;6.89;59.37
77737;BME280;66903;59.926;30.404;2024-03-02T00:48:57;102540.06;;;6.74;59.70
77737;BME280;66903;59.926;30.404;2024-03-02T00:54:09;102559.09;;;6.79;59.24
77737;BME280;66903;59.926;30.404;2024-03-02T00:59:23;102552.38;;;6.72;59.46
77737;BME280;66903;59.926;30.404;2024-03-02T01:04:34;102580.56;;;6.77;59.59
77737;BME280;66903;59.926;30.404;2024-03-02T01:09:45;102535.28;;;6.67;59.61
77737;BME280;66903;59.926;30.404;2024-03-02T01:14:59;102576.91;;;6.77;59.98
77737;BME280;66903;59.926;30.404;2024-03-02T01:20:10;102551.59;;;6.80;60.00
77737;BME280;66903;59.926;30.404;2024-03-02T01:25:21;102549.84;;;6.98;60.11
77737;BME280;66903;59.926;30.404;2024-03-02T01:30:32;102566.19;;;7.01;59.43
77737;BME280;66903;59.926;30.404;2024-03-02T01:35:43;102528.09;;;6.93;59.21
77737;BME280;66903;59.926;30.404;2024-03-02T01:40:54;102529.66;;;7.05;59.24
77737;BME280;66903;59.926;30.404;2024-03-02T01:46:07;102558.97;;;7.27;58.93
77737;BME280;66903;59.926;30.404;2024-03-02T01:51:18;102554.63;;;7.24;59.59
77737;BME280;66903;59.926;30.404;2024-03-02T01:56:29;102568.03;;;7.38;59.30
77737;BME280;66903;59.926;30.404;2024-03-02T02:01:40;102578.09;;;7.49;58.98
77737;BME280;66903;59.926;30.404;2024-03-02T02:06:51;102540.09;;;7.30;58.95
77737;BME280;66903;59.926;30.404;2024-03-02T02:12:02;102572.84;;;7.46;58.63
77737;BME280;66903;59.926;30.404;2024-03-02T02:17:15;102546.69;;;7.39;58.62
77737;BME280;66903;59.926;30.404;2024-03-02T02:22:27;102553.41;;;7.36;59.17
77737;BME280;66903;59.926;30.404;2024-03-02T02:27:39;102540.81;;;7.42;58.48
77737;BME280;66903;59.926;30.404;2024-03-02T02:32:50;102554.53;;;7.43;58.85
77737;BME280;66903;59.926;30.404;2024-03-02T02:38:02;102539.50;;;7.36;59.00
77737;BME280;66903;59.926;30.404;2024-03-02T02:43:13;102571.81;;;7.37;59.54
77737;BME280;66903;59.926;30.404;2024-03-02T02:48:24;102579.88;;;7.40;58.96
77737;BME280;66903;59.926;30.404;2024-03-02T02:53:35;102595.41;;;7.33;58.90
77737;BME280;66903;59.926;30.404;2024-03-02T02:58:50;102555.03;;;7.20;58.90
77737;BME280;66903;59.926;30.404;2024-03-02T03:04:01;102548.91;;;7.26;58.58
77737;BME280;66903;59.926;30.404;2024-03-02T03:09:12;102547.72;;;7.28;58.94
77737;BME280;66903;59.926;30.404;2024-03-02T03:14:23;102570.06;;;7.36;59.22
77737;BME280;66903;59.926;30.404;2024-03-02T03:19:34;102588.78;;;7.34;58.58
77737;BME280;66903;59.926;30.404;2024-03-02T03:24:46;102548.22;;;7.14;59.06
77737;BME280;66903;59.926;30.404;2024-03-02T03:29:57;102562.09;;;7.14;58.96
77737;BME280;66903;59.926;30.404;2024-03-02T03:35:08;102561.31;;;7.22;58.76
77737;BME280;66903;59.926;30.404;2024-03-02T03:40:19;102589.53;;;7.36;58.89
77737;BME280;66903;59.926;30.404;2024-03-02T03:45:30;102580.31;;;7.36;59.10
77737;BME280;66903;59.926;30.404;2024-03-02T03:50:41;102547.91;;;7.17;58.33
77737;BME280;66903;59.926;30.404;2024-03-02T03:55:52;102544.25;;;7.17;58.54
77737;BME280;66903;59.926;30.404;2024-03-02T04:01:03;102538.25;;;7.12;58.64
77737;BME280;66903;59.926;30.404;2024-03-02T04:06:14;102538.25;;;7.12;59.36
77737;BME280;66903;59.926;30.404;2024-03-02T04:11:27;102563.38;;;7.29;58.56
77737;BME280;66903;59.926;30.404;2024-03-02T04:16:38;102542.91;;;7.21;59.06
77737;BME280;66903;59.926;30.404;2024-03-02T04:21:49;102523.31;;;7.22;58.71
77737;BME280;66903;59.926;30.404;2024-03-02T04:27:00;102531.06;;;7.28;58.19
77737;BME280;66903;59.926;30.404;2024-03-02T04:32:11;102555.34;;;7.26;58.82
77737;BME280;66903;59.926;30.404;2024-03-02T04:37:22;102528.94;;;7.03;59.25
77737;BME280;66903;59.926;30.404;2024-03-02T04:42:33;102550.84;;;7.16;58.31
77737;BME280;66903;59.926;30.404;2024-03-02T04:47:44;102549.06;;;7.15;59.05
77737;BME280;66903;59.926;30.404;2024-03-02T04:52:55;102552.63;;;7.07;58.96
77737;BME280;66903;59.926;30.404;2024-03-02T04:58:06;102582.22;;;7.35;58.84
77737;BME280;66903;59.926;30.404;2024-03-02T05:03:17;102551.38;;;7.29;58.77
77737;BME280;66903;59.926;30.404;2024-03-02T05:08:28;102580.28;;;7.45;58.88
77737;BME280;66903;59.926;30.404;2024-03-02T05:13:39;102544.47;;;7.42;58.67
77737;BME280;66903;59.926;30.404;2024-03-02T05:18:50;102536.97;;;7.52;58.48
77737;BME280;66903;59.926;30.404;2024-03-02T05:24:01;102550.44;;;7.47;59.01
77737;BME280;66903;59.926;30.404;2024-03-02T05:29:12;102547.50;;;7.49;59.21
77737;BME280;66903;59.926;30.404;2024-03-02T05:34:23;102577.84;;;7.69;58.74
77737;BME280;66903;59.926;30.404;2024-03-02T05:39:34;102577.53;;;7.72;58.16
77737;BME280;66903;59.926;30.404;2024-03-02T05:44:45;102561.00;;;7.71;58.75
77737;BME280;66903;59.926;30.404;2024-03-02T05:49:56;102589.16;;;7.95;57.96
77737;BME280;66903;59.926;30.404;2024-03-02T05:55:08;102602.00;;;8.06;57.95
77737;BME280;66903;59.926;30.404;2024-03-02T06:00:19;102573.41;;;7.86;58.54
77737;BME280;66903;59.926;30.404;2024-03-02T06:05:30;102568.84;;;7.85;57.96
77737;BME280;66903;59.926;30.404;2024-03-02T06:10:41;102579.97;;;7.85;57.97
77737;BME280;66903;59.926;30.404;2024-03-02T06:15:52;102593.53;;;7.98;57.74
77737;BME280;66903;59.926;30.404;2024-03-02T06:21:04;102578.66;;;7.79;57.64
77737;BME280;66903;59.926;30.404;2024-03-02T06:26:15;102583.41;;;7.69;57.86
77737;BME280;66903;59.926;30.404;2024-03-02T06:31:26;102600.66;;;7.73;57.46
77737;BME280;66903;59.926;30.404;2024-03-02T06:36:38;102601.28;;;7.67;58.32
77737;BME280;66903;59.926;30.404;2024-03-02T06:41:50;102578.84;;;7.41;57.77
77737;BME280;66903;59.926;30.404;2024-03-02T06:47:01;102587.22;;;7.32;58.84
77737;BME280;66903;59.926;30.404;2024-03-02T06:52:12;102577.84;;;7.23;58.92
77737;BME280;66903;59.926;30.404;2024-03-02T06:57:23;102548.22;;;7.05;58.55
77737;BME280;66903;59.926;30.404;2024-03-02T07:02:35;102581.97;;;7.19;58.55
77737;BME280;66903;59.926;30.404;2024-03-02T07:07:46;102593.38;;;7.16;58.84
77737;BME280;66903;59.926;30.404;2024-03-02T07:12:57;102567.09;;;7.01;59.36
77737;BME280;66903;59.926;30.404;2024-03-02T07:18:08;102568.41;;;7.07;58.90
77737;BME280;66903;59.926;30.404;2024-03-02T07:23:19;102581.09;;;7.19;59.11
77737;BME280;66903;59.926;30.404;2024-03-02T07:28:34;102582.41;;;7.24;59.19
77737;BME280;66903;59.926;30.404;2024-03-02T07:33:45;102571.16;;;7.07;59.63
77737;BME280;66903;59.926;30.404;2024-03-02T07:38:57;102585.91;;;7.17;59.02
77737;BME280;66903;59.926;30.404;2024-03-02T07:44:08;102595.56;;;7.22;59.53
77737;BME280;66903;59.926;30.404;2024-03-02T07:49:19;102591.75;;;7.23;59.29
77737;BME280;66903;59.926;30.404;2024-03-02T07:54:33;102578.16;;;7.20;59.09
77737;BME280;66903;59.926;30.404;2024-03-02T07:59:44;102599.97;;;7.25;59.38
77737;BME280;66903;59.926;30.404;2024-03-02T08:04:55;102566.03;;;7.12;59.34
77737;BME280;66903;59.926;30.404;2024-03-02T08:10:06;102593.09;;;7.19;58.58
77737;BME280;66903;59.926;30.404;2024-03-02T08:15:18;102585.34;;;7.13;59.67
77737;BME280;66903;59.926;30.404;2024-03-02T08:20:28;102590.16;;;7.11;59.71
77737;BME280;66903;59.926;30.404;2024-03-02T08:25:39;102579.81;;;7.04;59.50
77737;BME280;66903;59.926;30.404;2024-03-02T08:30:50;102594.25;;;7.17;59.58
77737;BME280;66903;59.926;30.404;2024-03-02T08:36:02;102567.78;;;7.22;59.95
77737;BME280;66903;59.926;30.404;2024-03-02T08:41:13;102589.34;;;7.47;59.67
77737;BME280;66903;59.926;30.404;2024-03-02T08:46:24;102601.31;;;7.57;59.09
77737;BME280;66903;59.926;30.404;2024-03-02T08:51:35;102608.78;;;7.57;58.99
77737;BME280;66903;59.926;30.404;2024-03-02T08:56:46;102597.47;;;7.68;59.11
77737;BME280;66903;59.926;30.404;2024-03-02T09:01:57;102548.06;;;7.52;58.73
77737;BME280;66903;59.926;30.404;2024-03-02T09:07:08;102593.03;;;7.84;58.62
77737;BME280;66903;59.926;30.404;2024-03-02T09:12:19;102567.44;;;7.71;58.47
77737;BME280;66903;59.926;30.404;2024-03-02T09:17:30;102594.25;;;8.00;58.20
77737;BME280;66903;59.926;30.404;2024-03-02T09:22:41;102588.66;;;8.09;58.10
77737;BME280;66903;59.926;30.404;2024-03-02T09:27:52;102560.31;;;7.96;57.57
77737;BME280;66903;59.926;30.404;2024-03-02T09:33:04;102555.25;;;7.82;58.00
77737;BME280;66903;59.926;30.404;2024-03-02T09:38:15;102561.88;;;7.71;58.13
77737;BME280;66903;59.926;30.404;2024-03-02T09:43:26;102594.00;;;7.93;57.79
77737;BME280;66903;59.926;30.404;2024-03-02T09:48:37;102581.78;;;8.04;57.91
77737;BME280;66903;59.926;30.404;2024-03-02T09:53:49;102591.16;;;8.03;57.37
77737;BME280;66903;59.926;30.404;2024-03-02T09:59:00;102577.19;;;7.85;57.53
77737;BME280;66903;59.926;30.404;2024-03-02T10:04:12;102569.91;;;7.47;58.04
77737;BME280;66903;59.926;30.404;2024-03-02T10:09:29;102577.91;;;7.60;57.86
77737;BME280;66903;59.926;30.404;2024-03-02T10:14:40;102582.69;;;7.67;57.61
77737;BME280;66903;59.926;30.404;2024-03-02T10:19:51;102596.81;;;7.83;58.29
77737;BME280;66903;59.926;30.404;2024-03-02T10:25:03;102561.22;;;7.60;57.60
77737;BME280;66903;59.926;30.404;2024-03-02T10:30:15;102585.28;;;7.78;57.44
77737;BME280;66903;59.926;30.404;2024-03-02T10:35:26;102595.84;;;7.75;57.17
77737;BME280;66903;59.926;30.404;2024-03-02T10:40:37;102588.72;;;7.63;57.15
77737;BME280;66903;59.926;30.404;2024-03-02T10:45:49;102593.69;;;7.59;57.71
77737;BME280;66903;59.926;30.404;2024-03-02T10:51:01;102563.47;;;7.47;58.03
77737;BME280;66903;59.926;30.404;2024-03-02T10:56:18;102592.22;;;7.65;58.03
77737;BME280;66903;59.926;30.404;2024-03-02T11:01:33;102562.19;;;7.32;58.09
77737;BME280;66903;59.926;30.404;2024-03-02T11:06:49;102567.13;;;7.47;57.77
77737;BME280;66903;59.926;30.404;2024-03-02T11:12:09;102591.31;;;7.74;57.40
77737;BME280;66903;59.926;30.404;2024-03-02T11:17:23;102597.56;;;7.76;57.31
77737;BME280;66903;59.926;30.404;2024-03-02T11:22:36;102590.50;;;7.91;57.21
77737;BME280;66903;59.926;30.404;2024-03-02T11:33:03;102555.31;;;8.00;57.32
77737;BME280;66903;59.926;30.404;2024-03-02T11:38:21;102549.91;;;7.98;56.85
77737;BME280;66903;59.926;30.404;2024-03-02T11:43:32;102579.66;;;8.15;56.75
77737;BME280;66903;59.926;30.404;2024-03-02T11:48:43;102579.81;;;8.14;56.87
77737;BME280;66903;59.926;30.404;2024-03-02T11:53:58;102546.47;;;8.04;56.50
77737;BME280;66903;59.926;30.404;2024-03-02T11:59:10;102577.28;;;8.20;56.95
77737;BME280;66903;59.926;30.404;2024-03-02T12:04:22;102561.78;;;8.18;56.48
77737;BME280;66903;59.926;30.404;2024-03-02T12:09:33;102553.28;;;8.19;56.45
77737;BME280;66903;59.926;30.404;2024-03-02T12:14:51;102579.97;;;8.39;56.40
77737;BME280;66903;59.926;30.404;2024-03-02T12:20:12;102581.66;;;8.50;55.83
77737;BME280;66903;59.926;30.404;2024-03-02T12:25:24;102582.53;;;8.50;55.98
77737;BME280;66903;59.926;30.404;2024-03-02T12:30:35;102597.56;;;8.57;56.01
77737;BME280;66903;59.926;30.404;2024-03-02T12:35:46;102552.94;;;8.49;55.99
77737;BME280;66903;59.926;30.404;2024-03-02T12:40:59;102565.81;;;8.50;55.93
77737;BME280;66903;59.926;30.404;2024-03-02T12:46:10;102581.81;;;8.48;55.24
77737;BME280;66903;59.926;30.404;2024-03-02T12:51:22;102583.41;;;8.33;55.54
77737;BME280;66903;59.926;30.404;2024-03-02T12:56:33;102559.84;;;8.18;55.73
77737;BME280;66903;59.926;30.404;2024-03-02T13:01:54;102574.31;;;8.31;55.26
77737;BME280;66903;59.926;30.404;2024-03-02T13:07:07;102577.00;;;8.23;55.27
77737;BME280;66903;59.926;30.404;2024-03-02T13:12:19;102561.47;;;8.21;55.84
77737;BME280;66903;59.926;30.404;2024-03-02T13:17:30;102540.13;;;8.12;55.22
77737;BME280;66903;59.926;30.404;2024-03-02T13:22:43;102573.75;;;8.28;55.64
77737;BME280;66903;59.926;30.404;2024-03-02T13:27:54;102566.94;;;8.13;54.85
77737;BME280;66903;59.926;30.404;2024-03-02T13:33:05;102554.91;;;7.95;55.50
77737;BME280;66903;59.926;30.404;2024-03-02T13:38:18;102582.19;;;8.09;54.94
77737;BME280;66903;59.926;30.404;2024-03-02T13:43:29;102541.31;;;7.92;55.66
77737;BME280;66903;59.926;30.404;2024-03-02T13:48:45;102576.78;;;8.07;55.47
77737;BME280;66903;59.926;30.404;2024-03-02T13:53:56;102582.72;;;7.95;55.49
77737;BME280;66903;59.926;30.404;2024-03-02T13:59:08;102564.31;;;7.84;55.07
77737;BME280;66903;59.926;30.404;2024-03-02T14:04:19;102568.09;;;7.93;55.22
77737;BME280;66903;59.926;30.404;2024-03-02T14:09:30;102572.72;;;8.02;55.22
77737;BME280;66903;59.926;30.404;2024-03-02T14:14:41;102571.69;;;8.03;55.20
77737;BME280;66903;59.926;30.404;2024-03-02T14:19:52;102575.19;;;8.05;55.15
77737;BME280;66903;59.926;30.404;2024-03-02T14:25:04;102558.66;;;8.03;55.53
77737;BME280;66903;59.926;30.404;2024-03-02T14:30:15;102537.81;;;7.90;54.99
77737;BME280;66903;59.926;30.404;2024-03-02T14:35:26;102551.59;;;8.09;55.46
77737;BME280;66903;59.926;30.404;2024-03-02T14:40:39;102536.38;;;8.03;55.33
77737;BME280;66903;59.926;30.404;2024-03-02T14:45:50;102562.81;;;8.17;55.38
77737;BME280;66903;59.926;30.404;2024-03-02T14:51:01;102558.28;;;8.16;55.37
77737;BME280;66903;59.926;30.404;2024-03-02T14:56:13;102560.34;;;8.14;55.47
77737;BME280;66903;59.926;30.404;2024-03-02T15:01:24;102556.84;;;8.12;55.30
77737;BME280;66903;59.926;30.404;2024-03-02T15:06:35;102543.25;;;8.09;55.32
77737;BME280;66903;59.926;30.404;2024-03-02T15:11:46;102514.81;;;7.88;55.04
77737;BME280;66903;59.926;30.404;2024-03-02T15:16:58;102552.56;;;7.90;55.54
77737;BME280;66903;59.926;30.404;2024-03-02T15:22:09;102558.59;;;7.85;55.45
77737;BME280;66903;59.926;30.404;2024-03-02T15:27:20;102523.00;;;7.62;55.79
77737;BME280;66903;59.926;30.404;2024-03-02T15:32:31;102500.94;;;7.24;55.73
77737;BME280;66903;59.926;30.404;2024-03-02T15:37:42;102569.00;;;7.56;55.87
77737;BME280;66903;59.926;30.404;2024-03-02T15:42:53;102559.19;;;7.52;56.12
77737;BME280;66903;59.926;30.404;2024-03-02T15:48:04;102571.31;;;7.51;55.70
77737;BME280;66903;59.926;30.404;2024-03-02T15:53:15;102545.31;;;7.43;55.84
77737;BME280;66903;59.926;30.404;2024-03-02T15:58:26;102540.63;;;7.53;55.70
77737;BME280;66903;59.926;30.404;2024-03-02T16:03:38;102564.13;;;7.58;55.74
77737;BME280;66903;59.926;30.404;2024-03-02T16:08:49;102557.72;;;7.58;55.77
77737;BME280;66903;59.926;30.404;2024-03-02T16:14:00;102545.47;;;7.51;55.34
77737;BME280;66903;59.926;30.404;2024-03-02T16:19:11;102565.63;;;7.53;55.63
77737;BME280;66903;59.926;30.404;2024-03-02T16:24:22;102550.72;;;7.44;55.14
77737;BME280;66903;59.926;30.404;2024-03-02T16:29:33;102532.38;;;7.24;55.43
77737;BME280;66903;59.926;30.404;2024-03-02T16:34:44;102554.88;;;7.31;55.50
77737;BME280;66903;59.926;30.404;2024-03-02T16:39:56;102553.09;;;7.39;55.20
77737;BME280;66903;59.926;30.404;2024-03-02T16:45:07;102527.66;;;7.34;55.66
77737;BME280;66903;59.926;30.404;2024-03-02T16:50:19;102549.72;;;7.45;55.27
77737;BME280;66903;59.926;30.404;2024-03-02T16:55:30;102555.53;;;7.52;54.97
77737;BME280;66903;59.926;30.404;2024-03-02T17:00:41;102538.03;;;7.42;55.57
77737;BME280;66903;59.926;30.404;2024-03-02T17:05:52;102550.44;;;7.47;56.03
77737;BME280;66903;59.926;30.404;2024-03-02T17:11:03;102555.84;;;7.49;55.45
77737;BME280;66903;59.926;30.404;2024-03-02T17:16:14;102552.19;;;7.48;55.39
77737;BME280;66903;59.926;30.404;2024-03-02T17:21:26;102521.22;;;7.34;55.18
77737;BME280;66903;59.926;30.404;2024-03-02T17:26:37;102545.47;;;7.41;54.92
77737;BME280;66903;59.926;30.404;2024-03-02T17:31:51;102555.59;;;7.42;55.57
77737;BME280;66903;59.926;30.404;2024-03-02T17:37:02;102555.13;;;7.47;55.45
77737;BME280;66903;59.926;30.404;2024-03-02T17:42:13;102525.63;;;7.27;55.66
77737;BME280;66903;59.926;30.404;2024-03-02T17:47:24;102518.97;;;7.10;55.67
77737;BME280;66903;59.926;30.404;2024-03-02T17:52:36;102562.19;;;7.32;55.31
77737;BME280;66903;59.926;30.404;2024-03-02T17:57:47;102545.13;;;7.17;55.67
77737;BME280;66903;59.926;30.404;2024-03-02T18:02:59;102568.09;;;7.10;55.95
77737;BME280;66903;59.926;30.404;2024-03-02T18:08:10;102507.63;;;6.75;56.20
77737;BME280;66903;59.926;30.404;2024-03-02T18:13:22;102530.13;;;6.82;56.17
77737;BME280;66903;59.926;30.404;2024-03-02T18:18:33;102565.03;;;7.03;56.21
77737;BME280;66903;59.926;30.404;2024-03-02T18:23:44;102566.03;;;7.02;56.25
77737;BME280;66903;59.926;30.404;2024-03-02T18:28:55;102546.31;;;7.05;56.32
77737;BME280;66903;59.926;30.404;2024-03-02T18:34:06;102533.59;;;7.03;55.93
77737;BME280;66903;59.926;30.404;2024-03-02T18:39:17;102549.31;;;7.31;55.62
77737;BME280;66903;59.926;30.404;2024-03-02T18:44:28;102524.63;;;7.18;56.02
77737;BME280;66903;59.926;30.404;2024-03-02T18:49:43;102547.56;;;7.30;55.41
77737;BME280;66903;59.926;30.404;2024-03-02T18:54:56;102518.97;;;7.10;55.22
77737;BME280;66903;59.926;30.404;2024-03-02T19:00:08;102493.56;;;6.96;55.78
77737;BME280;66903;59.926;30.404;2024-03-02T19:05:21;102508.44;;;7.04;55.97
77737;BME280;66903;59.926;30.404;2024-03-02T19:10:32;102523.63;;;7.19;55.96
77737;BME280;66903;59.926;30.404;2024-03-02T19:15:43;102490.94;;;7.04;55.62
77737;BME280;66903;59.926;30.404;2024-03-02T19:20:54;102538.34;;;7.39;55.93
77737;BME280;66903;59.926;30.404;2024-03-02T19:26:05;102527.81;;;7.33;56.20
77737;BME280;66903;59.926;30.404;2024-03-02T19:31:16;102556.56;;;7.51;55.45
77737;BME280;66903;59.926;30.404;2024-03-02T19:36:27;102544.16;;;7.45;55.62
77737;BME280;66903;59.926;30.404;2024-03-02T19:41:38;102542.63;;;7.60;56.14
77737;BME280;66903;59.926;30.404;2024-03-02T19:46:49;102542.34;;;7.63;55.62
77737;BME280;66903;59.926;30.404;2024-03-02T19:52:00;102556.16;;;7.73;56.01
77737;BME280;66903;59.926;30.404;2024-03-02T19:57:11;102543.91;;;7.66;55.63
77737;BME280;66903;59.926;30.404;2024-03-02T20:02:22;102559.09;;;7.71;55.85
77737;BME280;66903;59.926;30.404;2024-03-02T20:07:37;102540.16;;;7.57;56.51
77737;BME280;66903;59.926;30.404;2024-03-02T20:12:52;102534.59;;;7.57;56.61
77737;BME280;66903;59.926;30.404;2024-03-02T20:18:03;102546.25;;;7.70;56.25
77737;BME280;66903;59.926;30.404;2024-03-02T20:23:14;102563.44;;;7.83;56.11
77737;BME280;66903;59.926;30.404;2024-03-02T20:28:25;102536.69;;;7.73;55.91
77737;BME280;66903;59.926;30.404;2024-03-02T20:33:36;102581.22;;;8.00;56.11
77737;BME280;66903;59.926;30.404;2024-03-02T20:38:47;102572.81;;;8.10;56.11
77737;BME280;66903;59.926;30.404;2024-03-02T20:43:59;102539.28;;;7.84;55.84
77737;BME280;66903;59.926;30.404;2024-03-02T20:49:10;102572.31;;;7.97;56.28
77737;BME280;66903;59.926;30.404;2024-03-02T20:54:21;102584.78;;;7.93;56.77
77737;BME280;66903;59.926;30.404;2024-03-02T20:59:33;102587.19;;;8.05;56.06
77737;BME280;66903;59.926;30.404;2024-03-02T21:04:44;102552.56;;;7.90;56.56
77737;BME280;66903;59.926;30.404;2024-03-02T21:09:56;102569.00;;;7.83;56.92
77737;BME280;66903;59.926;30.404;2024-03-02T21:15:08;102535.72;;;7.64;56.58
77737;BME280;66903;59.926;30.404;2024-03-02T21:20:19;102568.69;;;7.86;56.83
77737;BME280;66903;59.926;30.404;2024-03-02T21:25:30;102600.13;;;7.97;56.33
77737;BME280;66903;59.926;30.404;2024-03-02T21:30:44;102593.22;;;8.01;56.48
77737;BME280;66903;59.926;30.404;2024-03-02T21:35:55;102563.41;;;7.93;55.69
77737;BME280;66903;59.926;30.404;2024-03-02T21:41:06;102591.00;;;8.04;55.95
77737;BME280;66903;59.926;30.404;2024-03-02T21:46:17;102588.94;;;8.06;56.18
77737;BME280;66903;59.926;30.404;2024-03-02T21:51:28;102555.31;;;8.00;55.68
77737;BME280;66903;59.926;30.404;2024-03-02T21:56:39;102597.97;;;8.18;55.52
77737;BME280;66903;59.926;30.404;2024-03-02T22:01:50;102568.72;;;8.04;55.26
77737;BME280;66903;59.926;30.404;2024-03-02T22:07:02;102600.88;;;8.26;55.42
77737;BME280;66903;59.926;30.404;2024-03-02T22:12:13;102561.50;;;8.11;55.40
77737;BME280;66903;59.926;30.404;2024-03-02T22:17:24;102593.41;;;8.26;55.60
77737;BME280;66903;59.926;30.404;2024-03-02T22:22:38;102556.59;;;8.05;55.58
77737;BME280;66903;59.926;30.404;2024-03-02T22:27:51;102553.56;;;7.99;55.48
77737;BME280;66903;59.926;30.404;2024-03-02T22:33:05;102602.97;;;8.14;55.02
77737;BME280;66903;59.926;30.404;2024-03-02T22:38:16;102575.53;;;7.92;55.42
77737;BME280;66903;59.926;30.404;2024-03-02T22:43:29;102580.38;;;7.90;55.77
77737;BME280;66903;59.926;30.404;2024-03-02T22:48:40;102605.78;;;8.05;55.51
77737;BME280;66903;59.926;30.404;2024-03-02T22:53:51;102596.22;;;7.90;55.29
77737;BME280;66903;59.926;30.404;2024-03-02T22:59:02;102599.56;;;7.93;56.12
77737;BME280;66903;59.926;30.404;2024-03-02T23:04:14;102572.28;;;7.69;55.50
77737;BME280;66903;59.926;30.404;2024-03-02T23:09:25;102574.47;;;7.75;56.12
77737;BME280;66903;59.926;30.404;2024-03-02T23:14:37;102595.31;;;7.89;55.60
77737;BME280;66903;59.926;30.404;2024-03-02T23:19:48;102610.84;;;7.92;55.86
77737;BME280;66903;59.926;30.404;2024-03-02T23:24:59;102585.59;;;7.75;56.71
77737;BME280;66903;59.926;30.404;2024-03-02T23:30:10;102600.00;;;7.88;56.28
77737;BME280;66903;59.926;30.404;2024-03-02T23:35:22;102597.91;;;8.00;56.48
77737;BME280;66903;59.926;30.404;2024-03-02T23:40:33;102571.59;;;7.95;55.75
77737;BME280;66903;59.926;30.404;2024-03-02T23:45:44;102595.47;;;8.15;56.04
77737;BME280;66903;59.926;30.404;2024-03-02T23:50:55;102592.41;;;8.18;55.84
77737;BME280;66903;59.926;30.404;2024-03-02T23:56:11;102589.56;;;8.27;55.70
